• Join FlightAware (Why Join?)
  • Login
  • US Flag 
09:41AM EDT


 

Airport Tracker/Info


-or-


 

Live Flight TrackerFlight Track Log ✈ SKW6306 ✈ 19-Jun-2013 ✈ CYXE - KDEN

Flight Track Log - Related Links

Times and Time Zones

All times are in EDT time to prevent confusion due to time zone crossing. See the SKW6306 flight status page for this flight to view local times or setup timezone preferences in your user account.

Time Position Orientation Groundspeed Altitude Reporting Facility
EDT Latitude Longitude Course Direction KTS MPH feet Rate Location/Type
06:31PM 52.1500 -106.7333 360° North 10 12 1,600  Level Winnipeg Center
06:32PM 52.1500 -106.7333 270° West 20 23 1,600  Level Winnipeg Center
06:33PM 52.1500 -106.7500 270° West 20 23 1,600  Level Winnipeg Center
06:34PM 52.1667 -106.7500 360° North 20 23 1,600  Level Winnipeg Center
06:35PM 52.1500 -106.7333 148° Southeast 30 35 1,700 840 Climbing Winnipeg Center
06:36PM 52.1500 -106.6667 90° East 140 161 3,300 1,860 Climbing Winnipeg Center
06:37PM 52.1500 -106.5833 90° East 200 230 5,500 2,100 Climbing Winnipeg Center
06:38PM 52.1000 -106.5000 134° Southeast 240 276 7,500 2,100 Climbing Winnipeg Center
06:39PM 52.0167 -106.5333 194° South 270 311 9,700 2,280 Climbing Winnipeg Center
06:40PM 51.9500 -106.5667 197° South 290 334 12,100 1,980 Climbing Winnipeg Center
06:41PM 51.8667 -106.6333 206° Southwest 310 357 13,700 1,380 Climbing Winnipeg Center
06:42PM 51.7833 -106.7000 206° Southwest 320 368 14,900 1,140 Climbing Winnipeg Center
06:43PM 51.7167 -106.7667 212° Southwest 340 391 16,000 1,020 Climbing Winnipeg Center
06:44PM 51.6167 -106.8500 207° Southwest 340 391 17,000 900 Climbing Winnipeg Center
06:45PM 51.5500 -106.9500 223° Southwest 350 403 17,800 840 Climbing Winnipeg Center
06:46PM 51.4667 -107.0333 212° Southwest 360 414 18,700 840 Climbing Winnipeg Center
06:47PM 51.4000 -107.1500 228° Southwest 360 414 19,500 960 Climbing Winnipeg Center
06:48PM 51.3333 -107.2833 231° Southwest 370 426 20,700 1,320 Climbing Winnipeg Center
06:49PM 51.2667 -107.4167 231° Southwest 370 426 22,200 1,500 Climbing Winnipeg Center
06:50PM 51.2167 -107.5500 239° Southwest 370 426 23,700 1,440 Climbing Winnipeg Center
06:51PM 51.1333 -107.6000 201° Southwest 350 403 25,100 900 Climbing Winnipeg Center
06:52PM 51.0333 -107.6333 192° South 360 414 25,600 480 Climbing Winnipeg Center
06:53PM 50.9333 -107.6333 180° South 380 437 26,100 480 Climbing Winnipeg Center
06:54PM 50.8167 -107.6667 190° South 390 449 26,600 540 Climbing Winnipeg Center
06:55PM 50.7000 -107.6667 180° South 400 460 27,200 540 Climbing Winnipeg Center
06:56PM 50.6000 -107.7000 192° South 400 460 27,700 420 Climbing Winnipeg Center
06:57PM 50.4833 -107.7000 180° South 410 472 28,100 540 Climbing Winnipeg Center
06:58PM 50.3667 -107.7167 185° South 410 472 28,800 600 Climbing Winnipeg Center
06:59PM 50.2667 -107.7167 180° South 410 472 29,400 660 Climbing Winnipeg Center
07:00PM 50.1500 -107.7167 180° South 400 460 30,200 780 Climbing Winnipeg Center
07:01PM 50.0333 -107.7500 190° South 400 460 31,000 780 Climbing Winnipeg Center
07:02PM 49.9167 -107.7500 180° South 400 460 31,800 780 Climbing Winnipeg Center
07:03PM 49.8167 -107.7833 192° South 390 449 32,600 600 Climbing Winnipeg Center
07:04PM 49.7167 -107.7833 180° South 380 437 33,000 180 Climbing Winnipeg Center
07:05PM 49.6000 -107.8000 185° South 390 449 33,000  Level Winnipeg Center
07:06PM 49.5000 -107.8000 180° South 400 460 33,000  Level Winnipeg Center
07:07PM 49.3833 -107.8333 191° South 410 472 33,000  Level Winnipeg Center
07:08PM 49.2667 -107.8333 180° South 410 472 33,000  Level Winnipeg Center
07:09PM 49.1500 -107.8667 191° South 410 472 33,000  Level Winnipeg Center
07:10PM 49.0500 -107.8667 180° South 420 483 33,000  Level Winnipeg Center
07:11PM 48.9333 -107.8833 185° South 420 483 33,000  Level Winnipeg Center
07:12PM 48.8167 -107.8833 180° South 410 472 33,000  Level Winnipeg Center
07:13PM 48.7167 -107.8833 180° South 410 472 33,000  Level Winnipeg Center
07:14PM 48.6000 -107.9167 191° South 410 472 33,000  Level Winnipeg Center
07:15PM 48.4667 -107.9167 180° South 410 472 33,000  Level Winnipeg Center
07:16PM 48.3667 -107.9333 186° South 410 472 33,000  Level Winnipeg Center
07:17PM 48.2333 -107.9333 180° South 400 460 33,000  Level Winnipeg Center
07:18PM 48.1333 -107.9667 193° South 400 460 33,000  Level Winnipeg Center
07:19PM 48.0333 -107.9667 180° South 400 460 33,000  Level Winnipeg Center
07:20PM 47.9167 -107.9833 185° South 400 460 33,000  Level Winnipeg Center
07:21PM 47.8167 -107.9833 180° South 410 472 33,000  Level Winnipeg Center
07:22PM 47.6833 -108.0167 190° South 400 460 33,000  Level Winnipeg Center
07:23PM 47.5667 -108.0167 180° South 410 472 33,000  Level Winnipeg Center
07:24PM 47.4533 -107.9833 169° South 412 474 33,000  Level Salt Lake Center
07:25PM 47.3403 -107.9406 166° South 420 483 33,000  Level Salt Lake Center
07:26PM 47.2050 -107.8917 166° South 417 480 33,000  Level Salt Lake Center
07:27PM 47.0911 -107.8494 166° South 421 484 33,000  Level Salt Lake Center
07:28PM 46.9906 -107.8136 166° South 415 478 33,000  Level Salt Lake Center
07:29PM 46.8572 -107.7647 166° South 415 478 33,000  Level Salt Lake Center
07:30PM 46.7458 -107.7253 166° South 413 475 33,000  Level Salt Lake Center
07:31PM 46.6356 -107.6856 166° South 412 474 33,000  Level Salt Lake Center
07:32PM 46.5181 -107.6406 165° South 408 470 33,000  Level Salt Lake Center
07:33PM 46.3994 -107.5997 167° South 412 474 33,000  Level Salt Lake Center
07:34PM 46.2917 -107.5606 166° South 405 466 33,000  Level Salt Lake Center
07:35PM 46.1839 -107.5217 166° South 402 463 33,000  Level Salt Lake Center
07:36PM 46.0664 -107.4808 166° South 403 464 33,000  Level Salt Lake Center
07:37PM 45.9586 -107.4439 167° South 402 463 33,000  Level Salt Lake Center
07:39PM 45.8419 -107.4022 166° South 401 461 33,000  Level Salt Lake Center
07:40PM 45.7350 -107.3658 167° South 402 463 33,000  Level Salt Lake Center
07:41PM 45.6167 -107.3264 167° South 404 465 33,000  Level Salt Lake Center
07:42PM 45.5089 -107.2878 166° South 404 465 33,000  Level Salt Lake Center
07:43PM 45.3897 -107.2469 166° South 408 470 33,000  Level Salt Lake Center
07:44PM 45.2803 -107.2111 167° South 401 461 33,000  Level Salt Lake Center
07:45PM 45.1647 -107.1725 167° South 405 466 33,000  Level Salt Lake Center
07:46PM 45.0603 -107.1358 166° South 405 466 33,000  Level Salt Lake Center
07:47PM 44.9558 -107.1006 167° South 403 464 33,000  Level Salt Lake Center
07:48PM 44.8336 -107.0603 167° South 403 464 33,000  Level Salt Lake Center
07:49PM 44.7286 -107.0331 170° South 402 463 33,000  Level Salt Lake Center
07:50PM 44.6067 -107.0019 170° South 400 460 33,000  Level Salt Lake Center
07:51PM 44.5000 -106.9764 170° South 403 464 33,000  Level Salt Lake Center
07:52PM 44.3769 -106.9436 169° South 404 465 33,000  Level Salt Lake Center
07:53PM 44.2686 -106.9178 170° South 408 470 33,000  Level Salt Lake Center
07:54PM 44.1447 -106.8869 170° South 406 467 33,000  Level Salt Lake Center
07:55PM 44.0383 -106.8608 170° South 405 466 33,000  Level Salt Lake Center
07:56PM 43.9331 -106.8350 170° South 403 464 33,000  Level Salt Lake Center
07:57PM 43.8100 -106.8039 170° South 403 464 33,000  Level Salt Lake Center
07:58PM 43.7033 -106.7756 169° South 404 465 33,000  Level Denver Center
07:59PM 43.5981 -106.7506 170° South 402 463 33,000  Level Denver Center
08:00PM 43.4758 -106.7214 170° South 400 460 33,000  Level Denver Center
08:01PM 43.3706 -106.6964 170° South 402 463 33,000  Level Denver Center
08:02PM 43.2483 -106.6656 170° South 402 463 33,000  Level Denver Center
08:03PM 43.1431 -106.6408 170° South 401 461 33,000  Level Denver Center
08:04PM 43.0200 -106.6108 170° South 402 463 33,000  Level Denver Center
08:05PM 42.9150 -106.5853 170° South 402 463 33,000  Level Denver Center
08:06PM 42.7906 -106.5558 170° South 406 467 33,000  Level Denver Center
08:07PM 42.6853 -106.5314 170° South 404 465 33,000  Level Denver Center
08:08PM 42.5625 -106.5022 170° South 400 460 33,000  Level Denver Center
08:09PM 42.4583 -106.4778 170° South 399 459 33,000  Level Denver Center
08:10PM 42.3353 -106.4494 170° South 401 461 33,000  Level Denver Center
08:12PM 42.1919 -106.4156 170° South 407 468 33,000  Level Denver Center
08:13PM 42.0847 -106.3889 170° South 410 472 33,000  Level Denver Center
08:14PM 41.9789 -106.3647 170° South 407 468 33,000  Level Denver Center
08:15PM 41.8547 -106.3353 170° South 405 466 33,000  Level Denver Center
08:16PM 41.7467 -106.3114 171° South 409 471 33,000  Level Denver Center
08:17PM 41.6219 -106.2831 170° South 406 467 33,000  Level Denver Center
08:18PM 41.4794 -106.2497 170° South 408 470 33,000  Level Denver Center
08:19PM 41.3736 -106.2081 164° South 414 476 33,000  Level Denver Center
08:20PM 41.2572 -106.1581 162° South 413 475 33,000 -180 Level Denver Center
08:21PM 41.1444 -106.1108 162° South 421 484 32,700 -1,080 Descending Denver Center
08:22PM 41.0217 -106.0425 157° South 425 489 30,800 -1,800 Descending Denver Center
08:23PM 40.9186 -105.9850 157° South 433 498 29,000 -1,800 Descending Denver Center
08:24PM 40.8414 -105.8669 131° Southeast 436 502 27,200 -1,860 Descending Denver Center
08:25PM 40.7703 -105.7406 127° Southeast 428 493 25,200 -2,100 Descending Denver Center
08:26PM 40.6869 -105.5908 126° Southeast 424 488 22,900 -1,920 Descending Denver Center
08:27PM 40.6247 -105.4786 126° Southeast 387 445 21,300 -1,440 Descending Denver Center
08:28PM 40.5706 -105.3794 126° Southeast 340 391 19,900 -1,440 Descending Denver Center
08:29PM 40.5153 -105.2825 127° Southeast 331 381 18,400 -1,500 Descending Denver Center
08:30PM 40.4678 -105.1517 115° Southeast 353 406 16,800 -1,440 Descending Denver Center
08:32PM 40.4350 -105.0358 110° East 341 392 15,500 -1,140 Descending Denver Center
08:33PM 40.4042 -104.9278 111° Southeast 320 368 14,500 -960 Descending Denver Center
08:34PM 40.3775 -104.8292 110° East 270 311 13,600 -1,080 Descending Denver Center
08:35PM 40.3514 -104.7433 112° Southeast 258 297 12,300 -780 Descending Denver Center
08:36PM 40.2983 -104.6794 137° Southeast 257 296 12,000 -360 Descending Denver Center
08:37PM 40.2306 -104.6806 181° South 246 283 11,600 -900 Descending Denver Center
08:38PM 40.1636 -104.6825 181° South 241 277 10,200 -1,200 Descending Denver Center
08:39PM 40.0911 -104.6839 181° South 241 277 9,200 -900 Descending Denver Center
08:40PM 40.0339 -104.6856 181° South 204 235 8,400 -1,080 Descending Denver Center
08:41PM 39.9817 -104.6864 181° South 182 209 7,000 -1,080 Descending Denver Center
08:42PM 39.9433 -104.6864 180° South 139 160 6,200 -780 Descending Denver Center